Time;durP1;ratioP1;P1;durP2;ratioP2;P2;SDS_P1;SDS_P2;PMS_P1;PMS_P2;Temp;Humidity;BMP_temperature;BMP_pressure;BME280_temperature;BME280_humidity;BME280_pressure;Samples;Min_cycle;Max_cycle;Signal;HPM_P1;HPM_P2
2023/04/30 00:01:43;;;;;;;6.60;3.92;;;11.30;98.70;;;;;;5044111;28;20030;-80
2023/04/30 00:04:08;;;;;;;3.78;3.08;;;11.30;98.80;;;;;;5026128;28;20113;-79
2023/04/30 00:06:34;;;;;;;3.28;2.92;;;11.30;99.20;;;;;;5026396;28;20026;-80
2023/04/30 00:09:00;;;;;;;5.13;3.65;;;11.30;99.00;;;;;;5045729;28;20029;-79
2023/04/30 00:11:25;;;;;;;3.58;3.28;;;11.30;99.00;;;;;;5047193;28;20113;-79
2023/04/30 00:13:51;;;;;;;4.30;3.35;;;11.30;99.10;;;;;;5028824;28;20044;-77
2023/04/30 00:16:17;;;;;;;4.05;3.40;;;11.30;99.30;;;;;;5048660;28;20045;-80
2023/04/30 00:18:43;;;;;;;4.57;3.63;;;11.20;99.30;;;;;;5050009;28;20010;-79
2023/04/30 00:21:09;;;;;;;4.90;3.20;;;11.20;99.30;;;;;;5053749;28;20025;-79
2023/04/30 00:23:35;;;;;;;3.55;2.90;;;11.20;99.50;;;;;;5054903;28;20097;-80
2023/04/30 00:26:00;;;;;;;2.78;2.55;;;11.20;99.70;;;;;;5048092;28;20033;-80
2023/04/30 00:28:26;;;;;;;3.60;3.13;;;11.20;99.80;;;;;;5049049;28;20041;-79
2023/04/30 00:30:52;;;;;;;3.45;3.15;;;11.20;99.80;;;;;;5047499;28;20037;-78
2023/04/30 00:33:18;;;;;;;4.00;2.80;;;11.10;99.90;;;;;;5029777;28;20108;-81
2023/04/30 00:35:44;;;;;;;5.10;3.55;;;11.10;99.90;;;;;;5046537;28;20036;-79
2023/04/30 00:38:10;;;;;;;3.38;2.63;;;11.10;99.90;;;;;;5043283;28;20025;-81
2023/04/30 00:40:37;;;;;;;2.95;2.67;;;11.10;99.90;;;;;;5021094;28;20029;-78
2023/04/30 00:43:03;;;;;;;3.63;2.72;;;11.10;99.90;;;;;;5042392;28;20115;-77
2023/04/30 00:45:28;;;;;;;2.55;2.08;;;11.10;99.90;;;;;;5033172;28;20033;-78
2023/04/30 00:47:54;;;;;;;2.30;1.60;;;11.10;99.90;;;;;;5042468;28;20382;-79
2023/04/30 00:50:20;;;;;;;2.67;1.95;;;11.20;99.90;;;;;;5024314;28;20026;-79
2023/04/30 00:52:45;;;;;;;2.10;1.85;;;11.20;99.90;;;;;;5024979;28;20072;-80
2023/04/30 00:55:12;;;;;;;2.92;2.33;;;11.10;99.90;;;;;;5042403;28;20029;-79
2023/04/30 00:57:39;;;;;;;3.63;2.63;;;11.10;99.90;;;;;;5043279;28;20021;-79
2023/04/30 01:00:10;;;;;;;3.28;2.42;;;11.10;99.90;;;;;;5044561;28;20079;-81
2023/04/30 01:02:39;;;;;;;3.97;3.20;;;11.00;99.90;;;;;;5042742;28;20394;-77
2023/04/30 01:05:06;;;;;;;3.53;3.15;;;11.00;99.90;;;;;;5033430;28;20090;-78
2023/04/30 01:07:32;;;;;;;3.35;2.92;;;10.90;99.90;;;;;;5037604;28;20026;-77
2023/04/30 01:09:58;;;;;;;5.75;3.72;;;10.90;99.90;;;;;;5054756;28;20049;-78
2023/04/30 01:12:42;;;;;;;3.10;2.78;;;10.90;99.90;;;;;;5036813;28;20104;-78
2023/04/30 01:15:26;;;;;;;3.40;2.90;;;10.80;99.90;;;;;;5028881;28;20014;-76
2023/04/30 01:17:54;;;;;;;3.80;2.67;;;10.80;99.90;;;;;;5054860;28;20010;-79
2023/04/30 01:20:21;;;;;;;2.75;2.47;;;10.80;99.90;;;;;;5036478;28;20071;-77
2023/04/30 01:23:12;;;;;;;3.65;2.20;;;10.80;99.90;;;;;;5043073;28;20029;-82
2023/04/30 01:25:57;;;;;;;3.33;2.85;;;10.80;99.90;;;;;;5041513;28;20026;-81
2023/04/30 01:28:24;;;;;;;4.28;3.22;;;10.80;99.90;;;;;;5042608;28;20022;-79
2023/04/30 01:30:50;;;;;;;3.85;3.13;;;10.80;99.90;;;;;;5041797;28;20037;-80
2023/04/30 01:33:21;;;;;;;4.22;3.28;;;10.70;99.90;;;;;;5043778;28;20025;-80
2023/04/30 01:36:09;;;;;;;3.85;3.25;;;10.70;99.90;;;;;;5046321;28;20022;-79
2023/04/30 01:38:55;;;;;;;3.30;2.92;;;10.60;99.90;;;;;;5049789;28;20025;-79
2023/04/30 01:41:39;;;;;;;3.78;2.78;;;10.60;99.90;;;;;;5048682;28;20075;-80
2023/04/30 01:44:34;;;;;;;3.08;2.70;;;10.60;99.90;;;;;;5038931;28;20025;-80
2023/04/30 01:47:18;;;;;;;3.47;3.10;;;10.60;99.90;;;;;;4941596;28;20044;-79
2023/04/30 01:49:52;;;;;;;3.33;3.03;;;10.60;99.90;;;;;;5029249;28;20018;-78
2023/04/30 01:52:31;;;;;;;4.45;3.60;;;10.60;99.90;;;;;;5022307;28;20045;-77
2023/04/30 01:55:03;;;;;;;3.80;3.05;;;10.50;99.90;;;;;;5048034;28;20245;-79
2023/04/30 01:57:38;;;;;;;4.25;3.25;;;10.50;99.90;;;;;;5056392;28;20049;-77
2023/04/30 02:00:10;;;;;;;4.28;3.50;;;10.50;99.90;;;;;;5057816;28;20030;-77
2023/04/30 02:02:39;;;;;;;4.72;3.63;;;10.50;99.90;;;;;;5057552;28;20014;-79
2023/04/30 02:05:07;;;;;;;4.60;3.67;;;10.50;99.90;;;;;;5046355;28;20037;-80
2023/04/30 02:07:37;;;;;;;3.10;2.80;;;10.50;99.90;;;;;;5047396;28;20025;-80
2023/04/30 02:10:04;;;;;;;3.40;3.10;;;10.50;99.90;;;;;;5047387;28;20336;-79
2023/04/30 02:12:33;;;;;;;4.15;3.22;;;10.50;99.90;;;;;;5047663;28;20108;-80
2023/04/30 02:14:59;;;;;;;4.93;4.20;;;10.50;99.90;;;;;;5045933;28;20021;-78
2023/04/30 02:17:25;;;;;;;3.42;2.97;;;10.50;99.90;;;;;;5030380;28;20560;-79
2023/04/30 02:19:54;;;;;;;4.20;3.30;;;10.40;99.90;;;;;;5052065;28;20093;-82
2023/04/30 02:22:20;;;;;;;4.30;3.00;;;10.40;99.90;;;;;;5033597;28;20037;-78
2023/04/30 02:24:45;;;;;;;4.78;4.10;;;10.40;99.90;;;;;;5044033;28;20033;-79
2023/04/30 02:27:12;;;;;;;4.45;3.30;;;10.40;99.90;;;;;;5045358;28;20029;-79
2023/04/30 02:29:38;;;;;;;4.25;3.85;;;10.40;99.90;;;;;;5047413;28;20037;-77
2023/04/30 02:32:04;;;;;;;4.60;3.30;;;10.40;99.90;;;;;;5032927;28;20094;-79
2023/04/30 02:34:29;;;;;;;4.72;3.85;;;10.40;99.90;;;;;;5045780;28;20048;-79
2023/04/30 02:36:55;;;;;;;4.30;3.85;;;10.40;99.90;;;;;;5043885;28;20715;-79
2023/04/30 02:39:21;;;;;;;3.90;3.45;;;10.40;99.90;;;;;;5045202;28;20067;-79
2023/04/30 02:41:46;;;;;;;5.03;3.63;;;10.40;99.90;;;;;;5027191;28;20022;-79
2023/04/30 02:44:12;;;;;;;4.30;3.25;;;10.40;99.90;;;;;;5043810;28;20030;-79
2023/04/30 02:46:38;;;;;;;5.43;3.92;;;10.40;99.90;;;;;;5048598;28;20054;-77
2023/04/30 02:49:03;;;;;;;5.57;3.92;;;10.40;99.90;;;;;;5055507;28;20048;-79
2023/04/30 02:51:30;;;;;;;5.50;3.95;;;10.40;99.90;;;;;;5026928;28;20028;-80
2023/04/30 02:53:55;;;;;;;4.82;4.20;;;10.30;99.90;;;;;;5025901;28;20114;-78
2023/04/30 02:56:21;;;;;;;5.18;4.32;;;10.30;99.90;;;;;;5046221;28;20030;-78
2023/04/30 02:58:47;;;;;;;4.97;4.45;;;10.30;99.90;;;;;;5048981;28;20116;-79
2023/04/30 03:01:13;;;;;;;6.63;4.32;;;10.30;99.90;;;;;;5052946;28;20096;-76
2023/04/30 03:03:38;;;;;;;5.47;4.55;;;10.30;99.90;;;;;;5056428;28;20018;-76
2023/04/30 03:06:04;;;;;;;5.57;4.70;;;10.30;99.90;;;;;;5055579;28;20017;-76
2023/04/30 03:08:30;;;;;;;5.90;4.15;;;10.30;99.90;;;;;;5056107;28;20041;-76
2023/04/30 03:10:56;;;;;;;7.63;4.65;;;10.30;99.90;;;;;;5056042;28;20021;-78
2023/04/30 03:13:24;;;;;;;6.40;3.92;;;10.20;99.90;;;;;;5055843;28;20029;-77
2023/04/30 03:15:59;;;;;;;3.92;3.35;;;10.20;99.90;;;;;;5044006;28;20017;-79
2023/04/30 03:18:25;;;;;;;4.72;4.10;;;10.30;99.90;;;;;;5042711;28;20079;-79
2023/04/30 03:20:51;;;;;;;5.45;4.40;;;10.20;99.90;;;;;;5025878;28;20029;-79
2023/04/30 03:23:17;;;;;;;5.63;4.03;;;10.20;99.90;;;;;;5026154;28;20091;-79
2023/04/30 03:25:43;;;;;;;4.93;4.03;;;10.20;99.90;;;;;;5043034;28;20029;-78
2023/04/30 03:28:08;;;;;;;5.90;4.78;;;10.20;99.90;;;;;;5025676;28;20120;-81
2023/04/30 03:30:34;;;;;;;7.70;5.65;;;10.10;99.90;;;;;;5043708;28;20025;-78
2023/04/30 03:33:00;;;;;;;5.25;4.65;;;10.10;99.90;;;;;;5048556;28;20037;-78
2023/04/30 03:35:26;;;;;;;6.75;5.30;;;10.00;99.90;;;;;;5046676;28;20492;-79
2023/04/30 03:37:52;;;;;;;5.38;4.53;;;10.00;99.90;;;;;;5042944;28;20045;-79
2023/04/30 03:40:18;;;;;;;6.75;5.25;;;9.90;99.90;;;;;;5025863;28;20030;-78
2023/04/30 03:42:43;;;;;;;5.63;4.85;;;9.90;99.90;;;;;;5042166;28;20038;-77
2023/04/30 03:45:09;;;;;;;5.57;4.70;;;9.90;99.90;;;;;;5024111;28;20042;-79
2023/04/30 03:47:35;;;;;;;4.90;4.28;;;9.90;99.90;;;;;;5041151;28;20120;-76
2023/04/30 03:50:02;;;;;;;5.90;4.45;;;9.80;99.90;;;;;;5038049;28;20022;-78
2023/04/30 03:52:30;;;;;;;7.07;4.88;;;9.80;99.90;;;;;;5018048;28;20033;-77
2023/04/30 03:54:56;;;;;;;6.60;5.28;;;9.80;99.90;;;;;;5034902;28;20033;-77
2023/04/30 03:57:24;;;;;;;7.60;4.95;;;9.80;99.90;;;;;;5036345;28;20038;-78
2023/04/30 03:59:50;;;;;;;7.20;5.70;;;9.80;99.90;;;;;;5034108;28;20029;-77
2023/04/30 04:02:16;;;;;;;6.07;5.07;;;9.80;99.90;;;;;;5018026;28;20403;-76
2023/04/30 04:04:42;;;;;;;7.40;4.82;;;9.80;99.90;;;;;;5035320;28;20040;-78
2023/04/30 04:07:10;;;;;;;8.27;6.38;;;9.80;99.90;;;;;;5036797;28;20544;-77
2023/04/30 04:09:35;;;;;;;6.85;5.10;;;9.80;99.90;;;;;;5034352;28;20033;-77
2023/04/30 04:12:01;;;;;;;5.80;4.57;;;9.70;99.90;;;;;;5034873;28;20025;-77
2023/04/30 04:14:30;;;;;;;4.25;3.83;;;9.70;99.90;;;;;;5015812;28;20082;-76
2023/04/30 04:16:59;;;;;;;6.82;5.05;;;9.80;99.90;;;;;;5035604;28;20451;-79
2023/04/30 04:19:25;;;;;;;6.97;5.63;;;9.80;99.90;;;;;;5016446;28;20179;-75
2023/04/30 04:21:53;;;;;;;6.50;4.90;;;9.80;99.90;;;;;;5034225;28;20166;-76
2023/04/30 04:24:19;;;;;;;7.82;5.00;;;9.80;99.90;;;;;;5034652;28;20048;-77
2023/04/30 04:26:45;;;;;;;6.05;5.05;;;9.80;99.90;;;;;;5018992;28;20501;-75
2023/04/30 04:29:14;;;;;;;5.43;4.80;;;9.80;99.90;;;;;;5039014;28;20096;-76
2023/04/30 04:31:41;;;;;;;6.35;5.28;;;9.80;99.90;;;;;;5037607;28;20025;-77
2023/04/30 04:34:07;;;;;;;5.90;5.22;;;9.80;99.90;;;;;;5041951;28;20025;-76
2023/04/30 04:36:33;;;;;;;6.25;4.40;;;9.90;99.90;;;;;;5049239;28;20077;-76
2023/04/30 04:39:02;;;;;;;5.47;4.40;;;9.90;99.90;;;;;;5049057;28;20022;-77
2023/04/30 04:41:32;;;;;;;6.45;3.42;;;10.00;99.90;;;;;;5049330;28;20014;-76
2023/04/30 04:44:00;;;;;;;3.45;3.15;;;10.10;99.90;;;;;;5047714;28;20033;-75
2023/04/30 04:46:27;;;;;;;3.78;3.35;;;10.10;99.90;;;;;;5030878;28;20037;-75
2023/04/30 04:48:53;;;;;;;4.40;3.28;;;10.20;99.90;;;;;;5034786;28;20018;-76
2023/04/30 04:51:19;;;;;;;3.20;2.90;;;10.20;99.90;;;;;;5053083;28;20101;-77
2023/04/30 04:53:45;;;;;;;2.97;2.70;;;10.30;99.90;;;;;;5049887;28;20045;-77
2023/04/30 04:56:10;;;;;;;6.65;4.95;;;10.30;99.90;;;;;;5023768;28;20097;-77
2023/04/30 04:58:36;;;;;;;5.13;4.63;;;10.40;99.90;;;;;;5049093;28;20067;-76
2023/04/30 05:01:03;;;;;;;5.78;5.18;;;10.40;99.90;;;;;;5051472;28;20040;-75
2023/04/30 05:03:30;;;;;;;5.80;4.78;;;10.30;99.90;;;;;;5054599;28;20010;-76
2023/04/30 05:05:55;;;;;;;6.50;5.05;;;10.30;99.90;;;;;;5054052;28;20037;-77
2023/04/30 05:08:21;;;;;;;7.05;5.03;;;10.40;99.90;;;;;;5055801;28;20071;-76
2023/04/30 05:10:47;;;;;;;5.57;4.90;;;10.30;99.90;;;;;;5057566;28;20030;-76
2023/04/30 05:13:13;;;;;;;5.63;4.00;;;10.40;99.90;;;;;;5054932;28;20313;-76
2023/04/30 05:15:39;;;;;;;6.07;4.80;;;10.30;99.90;;;;;;5057703;28;20092;-79
2023/04/30 05:18:04;;;;;;;8.52;5.68;;;10.40;99.90;;;;;;5046668;28;20037;-76
2023/04/30 05:20:30;;;;;;;8.25;6.18;;;10.40;99.90;;;;;;5035478;28;20075;-76
2023/04/30 05:22:56;;;;;;;8.13;6.63;;;10.30;99.90;;;;;;5041541;28;20097;-77
2023/04/30 05:25:21;;;;;;;6.38;5.60;;;10.30;99.90;;;;;;5033273;28;20052;-76
2023/04/30 05:27:47;;;;;;;6.18;5.28;;;10.30;99.90;;;;;;5044327;28;20113;-77
2023/04/30 05:30:14;;;;;;;7.75;5.75;;;10.30;99.90;;;;;;5043520;28;20030;-76
2023/04/30 05:32:40;;;;;;;10.35;6.35;;;10.30;99.90;;;;;;5027641;28;20034;-76
2023/04/30 05:35:06;;;;;;;8.45;6.35;;;10.40;99.90;;;;;;5043321;28;20024;-75
2023/04/30 05:37:32;;;;;;;7.25;5.30;;;10.40;99.90;;;;;;5047367;28;20032;-76
2023/04/30 05:39:58;;;;;;;6.22;4.80;;;10.50;99.90;;;;;;5045548;28;20147;-76
2023/04/30 05:42:23;;;;;;;7.82;5.47;;;10.60;99.90;;;;;;5052067;28;20096;-78
2023/04/30 05:44:49;;;;;;;8.48;5.70;;;10.60;99.90;;;;;;5035931;28;20009;-75
2023/04/30 05:47:15;;;;;;;6.50;5.50;;;10.60;99.90;;;;;;5050425;28;20033;-77
2023/04/30 05:49:41;;;;;;;6.22;5.20;;;10.60;99.90;;;;;;5040126;28;20021;-77
2023/04/30 05:52:06;;;;;;;9.90;5.10;;;10.70;99.90;;;;;;5042058;28;20036;-77
2023/04/30 05:54:32;;;;;;;7.43;5.85;;;10.80;99.90;;;;;;5040768;28;20029;-78
2023/04/30 05:56:58;;;;;;;8.30;6.22;;;10.90;99.90;;;;;;5023799;28;20471;-78
2023/04/30 05:59:24;;;;;;;6.50;5.80;;;10.90;99.90;;;;;;5019591;28;20025;-77
2023/04/30 06:01:51;;;;;;;7.28;5.15;;;10.90;99.90;;;;;;5019090;28;20395;-79
2023/04/30 06:04:16;;;;;;;10.15;6.85;;;11.00;99.90;;;;;;5041041;28;20033;-77
2023/04/30 06:06:42;;;;;;;8.18;6.35;;;11.00;99.90;;;;;;5036184;28;20041;-79
2023/04/30 06:09:09;;;;;;;5.97;5.38;;;11.00;99.90;;;;;;5018863;28;20070;-77
2023/04/30 06:11:36;;;;;;;8.02;5.57;;;11.10;99.90;;;;;;5018520;28;20034;-77
2023/04/30 06:14:03;;;;;;;6.15;5.35;;;11.40;99.90;;;;;;5032170;28;20032;-76
2023/04/30 06:16:28;;;;;;;6.97;6.15;;;11.70;99.20;;;;;;5025495;28;20022;-77
2023/04/30 06:18:54;;;;;;;5.97;5.38;;;11.80;98.80;;;;;;5038456;28;20021;-77
2023/04/30 06:21:20;;;;;;;9.23;5.43;;;12.70;98.10;;;;;;5036509;28;20058;-78
2023/04/30 06:23:45;;;;;;;4.88;4.10;;;14.00;94.40;;;;;;5043985;28;20081;-76
2023/04/30 06:26:13;;;;;;;5.15;4.10;;;14.20;93.20;;;;;;5046722;28;20021;-76
2023/04/30 06:28:52;;;;;;;5.05;3.65;;;13.90;92.90;;;;;;5105754;22;20046;-82
2023/04/30 06:31:18;;;;;;;4.15;3.47;;;13.90;93.10;;;;;;5011526;28;20030;-79
2023/04/30 06:33:44;;;;;;;4.10;3.70;;;13.90;93.00;;;;;;5009293;28;20040;-78
2023/04/30 06:36:09;;;;;;;4.70;4.00;;;13.70;92.50;;;;;;5017675;28;20033;-79
2023/04/30 06:38:35;;;;;;;4.47;3.90;;;13.70;92.40;;;;;;5018330;28;20030;-78
2023/04/30 06:41:04;;;;;;;4.00;3.60;;;13.80;92.20;;;;;;5018675;28;20030;-78
2023/04/30 06:44:15;;;;;;;3.80;3.47;;;14.60;91.30;;;;;;4984159;28;20030;-81
2023/04/30 06:46:41;;;;;;;4.55;3.83;;;14.90;89.00;;;;;;4970235;28;20097;-79
2023/04/30 06:49:07;;;;;;;3.83;2.95;;;15.00;87.90;;;;;;4961455;28;20023;-79
2023/04/30 06:51:33;;;;;;;2.72;2.53;;;;;;;;;;4980379;28;20035;-78
2023/04/30 06:53:59;;;;;;;3.13;2.92;;;15.50;86.00;;;;;;4986145;28;20031;-77
2023/04/30 06:56:25;;;;;;;2.45;2.25;;;15.60;84.20;;;;;;4979777;28;20432;-77
2023/04/30 06:58:54;;;;;;;2.60;2.40;;;15.40;84.70;;;;;;4997612;28;20107;-79
2023/04/30 07:01:19;;;;;;;4.00;3.60;;;15.20;85.00;;;;;;4997804;28;20030;-78
2023/04/30 07:03:45;;;;;;;4.40;4.00;;;14.90;85.00;;;;;;4987210;28;20388;-79
2023/04/30 07:06:14;;;;;;;5.57;4.60;;;14.40;85.50;;;;;;5001098;28;20085;-77
2023/04/30 07:08:40;;;;;;;5.20;4.65;;;13.90;87.80;;;;;;4994812;28;20037;-79
2023/04/30 07:11:08;;;;;;;6.88;4.45;;;13.60;89.90;;;;;;5021877;28;20394;-79
2023/04/30 07:13:34;;;;;;;5.03;4.30;;;13.50;90.40;;;;;;5003865;28;20038;-78
2023/04/30 07:16:00;;;;;;;7.32;5.43;;;13.40;90.70;;;;;;4997400;28;20080;-78
2023/04/30 07:18:28;;;;;;;5.60;5.10;;;13.40;90.90;;;;;;4993840;28;20019;-78
2023/04/30 07:20:54;;;;;;;5.93;5.00;;;13.40;91.20;;;;;;4993318;28;20035;-78
2023/04/30 07:23:20;;;;;;;6.32;5.22;;;13.40;91.20;;;;;;4978523;28;20031;-79
2023/04/30 07:25:45;;;;;;;9.20;4.57;;;13.40;91.20;;;;;;4979021;28;20027;-78
2023/04/30 07:28:14;;;;;;;4.63;4.22;;;13.40;91.20;;;;;;4984501;28;20034;-77
2023/04/30 07:30:40;;;;;;;4.75;4.07;;;13.40;91.30;;;;;;4987131;28;20066;-77
2023/04/30 07:33:09;;;;;;;4.25;3.85;;;13.50;91.40;;;;;;4960610;28;20039;-76
2023/04/30 07:35:35;;;;;;;5.90;5.03;;;13.50;91.10;;;;;;4977624;28;20061;-79
2023/04/30 07:38:01;;;;;;;5.18;4.65;;;13.40;91.20;;;;;;4996564;28;20014;-80
2023/04/30 07:40:29;;;;;;;3.85;3.42;;;13.40;90.90;;;;;;5016936;28;20277;-78
2023/04/30 07:42:55;;;;;;;4.47;3.40;;;13.40;91.40;;;;;;4987571;28;20038;-79
2023/04/30 07:45:21;;;;;;;3.50;3.20;;;13.70;91.50;;;;;;4996823;28;20033;-78
2023/04/30 07:47:47;;;;;;;4.35;3.17;;;14.00;91.00;;;;;;5003194;28;20026;-78
2023/04/30 07:50:13;;;;;;;3.50;3.20;;;14.40;90.50;;;;;;4987850;28;20097;-80
2023/04/30 07:52:48;;;;;;;3.20;2.88;;;14.50;89.70;;;;;;5120504;27;20401;-79
2023/04/30 07:55:20;;;;;;;4.88;3.90;;;14.60;89.20;;;;;;5116923;28;20609;-78
2023/04/30 07:57:48;;;;;;;3.28;2.95;;;14.80;87.70;;;;;;5115598;28;20402;-81
2023/04/30 08:00:14;;;;;;;3.70;2.65;;;14.90;87.60;;;;;;5104056;28;20465;-79
2023/04/30 08:02:42;;;;;;;4.72;4.25;;;15.30;86.90;;;;;;5092250;28;20016;-79
2023/04/30 08:05:08;;;;;;;4.53;3.70;;;15.40;83.80;;;;;;5091143;28;20499;-79
2023/04/30 08:07:34;;;;;;;4.78;4.07;;;15.50;84.20;;;;;;5091166;28;20036;-79
2023/04/30 08:09:59;;;;;;;5.93;5.15;;;15.40;84.00;;;;;;5090998;28;20029;-77
2023/04/30 08:12:25;;;;;;;4.20;3.80;;;15.20;83.60;;;;;;5097403;28;20379;-78
2023/04/30 08:14:59;;;;;;;6.80;3.95;;;15.20;84.80;;;;;;5102452;28;20032;-77
2023/04/30 08:17:25;;;;;;;3.60;3.30;;;15.40;85.40;;;;;;5105225;28;20378;-79
2023/04/30 08:19:53;;;;;;;3.00;2.70;;;15.60;84.50;;;;;;5090272;28;20094;-77
2023/04/30 08:22:18;;;;;;;3.17;2.88;;;15.70;83.80;;;;;;5090670;28;20032;-78
2023/04/30 08:24:44;;;;;;;2.80;2.60;;;15.60;83.60;;;;;;5092611;28;20032;-78
2023/04/30 08:27:10;;;;;;;4.55;4.10;;;15.50;84.10;;;;;;5092348;28;20024;-78
2023/04/30 08:29:37;;;;;;;4.10;3.80;;;15.40;83.70;;;;;;5089967;28;20054;-78
2023/04/30 08:32:04;;;;;;;3.22;3.03;;;15.30;83.50;;;;;;5090965;28;20472;-78
2023/04/30 08:34:30;;;;;;;5.32;4.82;;;15.20;84.60;;;;;;5090549;28;20020;-77
2023/04/30 08:36:59;;;;;;;4.40;4.00;;;15.10;84.30;;;;;;5101327;28;20027;-78
2023/04/30 08:39:24;;;;;;;4.50;4.10;;;15.30;84.00;;;;;;5105499;28;20031;-78
2023/04/30 08:41:58;;;;;;;3.95;3.65;;;15.30;83.50;;;;;;5092925;28;20419;-78
2023/04/30 08:44:29;;;;;;;2.83;2.63;;;15.50;84.20;;;;;;5091069;28;20035;-78
2023/04/30 08:46:57;;;;;;;2.85;2.65;;;16.00;83.10;;;;;;5091427;28;20020;-78
2023/04/30 08:49:23;;;;;;;3.30;3.00;;;16.60;80.90;;;;;;5089270;28;20032;-78
2023/04/30 08:51:49;;;;;;;2.63;2.42;;;16.90;78.80;;;;;;5088898;28;20489;-79
2023/04/30 08:54:17;;;;;;;2.28;2.15;;;16.70;77.90;;;;;;5073608;28;20028;-78
2023/04/30 08:56:45;;;;;;;2.30;2.20;;;16.60;78.10;;;;;;5090611;28;20158;-78
2023/04/30 08:59:12;;;;;;;3.55;2.97;;;16.50;78.10;;;;;;5089598;28;20043;-77
2023/04/30 09:01:37;;;;;;;3.17;2.90;;;16.40;77.80;;;;;;5088712;28;20051;-78
2023/04/30 09:04:04;;;;;;;3.25;2.95;;;16.30;77.70;;;;;;5077725;28;20033;-79
2023/04/30 09:06:30;;;;;;;2.85;2.65;;;16.00;77.70;;;;;;5093277;28;20021;-80
2023/04/30 09:08:56;;;;;;;2.50;2.30;;;15.90;78.10;;;;;;5097820;28;20035;-79
2023/04/30 09:11:31;;;;;;;2.83;2.63;;;15.80;78.90;;;;;;5064933;28;20472;-80
2023/04/30 09:14:03;;;;;;;2.78;2.58;;;15.80;77.70;;;;;;5100490;28;20020;-79
2023/04/30 09:16:51;;;;;;;3.05;2.80;;;15.70;78.00;;;;;;5088156;28;20020;-80
2023/04/30 09:19:23;;;;;;;2.40;2.17;;;15.70;77.60;;;;;;5083331;28;20396;-79
2023/04/30 09:21:48;;;;;;;2.50;2.30;;;15.70;78.20;;;;;;5084003;28;20057;-77
2023/04/30 09:24:14;;;;;;;2.50;2.30;;;15.70;76.50;;;;;;5079833;28;20025;-77
2023/04/30 09:26:40;;;;;;;2.45;2.25;;;15.70;76.30;;;;;;5077652;28;20028;-79
2023/04/30 09:29:09;;;;;;;2.10;1.90;;;15.60;77.50;;;;;;5077135;28;20400;-79
2023/04/30 09:31:38;;;;;;;2.00;1.90;;;15.70;78.40;;;;;;5076224;28;20021;-78
2023/04/30 09:34:05;;;;;;;2.20;2.10;;;15.90;78.00;;;;;;5076679;28;20028;-78
2023/04/30 09:36:33;;;;;;;1.85;1.75;;;16.00;77.20;;;;;;5077026;28;20027;-78
2023/04/30 09:39:16;;;;;;;2.08;1.85;;;15.90;77.00;;;;;;5077844;28;20104;-78
2023/04/30 09:41:42;;;;;;;2.60;2.40;;;15.90;77.40;;;;;;5079931;28;20021;-78
2023/04/30 09:44:07;;;;;;;1.90;1.80;;;16.00;76.20;;;;;;5075634;28;20040;-78
2023/04/30 09:46:37;;;;;;;2.17;2.00;;;15.90;76.30;;;;;;5076167;28;20028;-78
2023/04/30 09:49:05;;;;;;;1.73;1.63;;;15.90;76.60;;;;;;5076512;28;20024;-78
2023/04/30 09:51:30;;;;;;;2.20;2.00;;;15.80;76.20;;;;;;5075398;28;20043;-78
2023/04/30 09:53:56;;;;;;;2.50;2.30;;;15.70;76.00;;;;;;5076031;28;20088;-80
2023/04/30 09:56:27;;;;;;;2.35;2.10;;;15.60;76.10;;;;;;5080212;28;20042;-78
2023/04/30 09:58:54;;;;;;;2.35;1.80;;;15.50;76.80;;;;;;5077568;28;20082;-79
2023/04/30 10:01:28;;;;;;;2.17;1.98;;;15.50;77.80;;;;;;5078404;28;20037;-77
2023/04/30 10:03:54;;;;;;;2.75;2.55;;;15.70;77.40;;;;;;5075959;28;20107;-81
2023/04/30 10:06:21;;;;;;;3.47;2.30;;;15.80;76.60;;;;;;5074645;28;20025;-77
2023/04/30 10:08:50;;;;;;;2.25;2.05;;;15.80;77.10;;;;;;5081414;28;20028;-78
2023/04/30 10:11:21;;;;;;;1.88;1.77;;;16.10;77.20;;;;;;5095677;28;20106;-78
2023/04/30 10:14:13;;;;;;;2.20;2.00;;;16.40;75.30;;;;;;5078096;28;20017;-79
2023/04/30 10:16:56;;;;;;;1.83;1.70;;;16.60;74.50;;;;;;5069612;28;20377;-78
2023/04/30 10:19:24;;;;;;;2.90;2.60;;;17.10;73.30;;;;;;5060130;28;20044;-78
2023/04/30 10:21:51;;;;;;;1.98;1.88;;;17.30;71.40;;;;;;5075428;28;20039;-78
2023/04/30 10:24:19;;;;;;;3.20;3.00;;;17.40;70.90;;;;;;5057794;28;20036;-78
2023/04/30 10:26:49;;;;;;;3.40;2.83;;;17.50;69.00;;;;;;5074926;28;20035;-80
2023/04/30 10:29:16;;;;;;;2.72;2.53;;;17.30;68.90;;;;;;5074446;28;20051;-78
2023/04/30 10:31:46;;;;;;;2.10;2.00;;;17.10;70.00;;;;;;5075432;28;20034;-79
2023/04/30 10:34:45;;;;;;;3.08;2.65;;;17.00;70.10;;;;;;5073768;28;20024;-79
2023/04/30 10:37:15;;;;;;;2.20;2.00;;;16.90;70.60;;;;;;5065410;28;20024;-79
2023/04/30 10:39:41;;;;;;;2.42;2.22;;;17.30;71.30;;;;;;5098726;28;20020;-79
2023/04/30 10:42:09;;;;;;;3.90;2.83;;;17.50;67.90;;;;;;5074849;28;20043;-79
2023/04/30 10:44:38;;;;;;;2.92;2.08;;;17.40;67.50;;;;;;5072883;28;20071;-79
2023/04/30 10:47:05;;;;;;;2.15;2.00;;;17.20;68.30;;;;;;5075988;28;20028;-79
2023/04/30 10:49:32;;;;;;;2.55;2.35;;;17.20;69.00;;;;;;5086228;28;20066;-79
2023/04/30 10:52:02;;;;;;;1.98;1.88;;;17.40;68.00;;;;;;5080137;28;20032;-79
2023/04/30 10:54:34;;;;;;;2.38;2.17;;;17.30;68.00;;;;;;5073445;28;20774;-79
2023/04/30 10:57:10;;;;;;;;;;;17.50;68.30;;;;;;5074999;28;20544;-80
2023/04/30 10:59:36;;;;;;;1.70;1.60;;;17.90;68.10;;;;;;5075157;28;19915;-79
2023/04/30 11:02:02;;;;;;;1.90;1.80;;;18.40;65.70;;;;;;5074440;28;20029;-78
2023/04/30 11:04:29;;;;;;;2.25;2.15;;;18.40;65.00;;;;;;5078901;28;20013;-80
2023/04/30 11:07:08;;;;;;;2.22;2.03;;;18.30;63.70;;;;;;5090227;28;20555;-79
2023/04/30 11:09:47;;;;;;;3.33;2.28;;;18.10;64.30;;;;;;5080590;28;20066;-80
2023/04/30 11:12:14;;;;;;;2.13;2.03;;;18.00;65.00;;;;;;4951155;28;20033;-80
2023/04/30 11:14:42;;;;;;;2.47;2.28;;;18.10;64.50;;;;;;5002753;28;20034;-79
2023/04/30 11:17:20;;;;;;;1.70;1.60;;;18.30;63.30;;;;;;4998792;28;20030;-80
2023/04/30 11:19:50;;;;;;;3.33;1.77;;;18.80;63.90;;;;;;5017330;28;20326;-79
2023/04/30 11:22:17;;;;;;;1.73;1.63;;;19.50;61.90;;;;;;5017328;28;20036;-79
2023/04/30 11:24:53;;;;;;;2.45;1.92;;;19.50;60.50;;;;;;5020413;28;20018;-79
2023/04/30 11:27:21;;;;;;;2.33;2.13;;;19.10;60.40;;;;;;5022149;28;20051;-79
2023/04/30 11:29:50;;;;;;;2.53;1.75;;;18.90;59.80;;;;;;5017203;28;20037;-79
2023/04/30 11:32:20;;;;;;;1.85;1.73;;;18.60;61.20;;;;;;5018194;28;20048;-79
2023/04/30 11:34:46;;;;;;;2.63;2.42;;;18.40;61.60;;;;;;5014278;28;20077;-78
2023/04/30 11:37:17;;;;;;;1.80;1.65;;;18.10;61.30;;;;;;5004753;28;20093;-79
2023/04/30 11:39:43;;;;;;;2.00;1.90;;;17.90;62.50;;;;;;5011245;28;20030;-79
2023/04/30 11:42:14;;;;;;;3.40;2.50;;;17.90;62.90;;;;;;5013135;28;20030;-78
2023/04/30 11:44:40;;;;;;;2.42;2.22;;;17.80;62.60;;;;;;5005578;28;20034;-79
2023/04/30 11:47:06;;;;;;;2.00;1.90;;;17.80;61.80;;;;;;5008267;28;20026;-78
2023/04/30 11:49:32;;;;;;;4.30;1.98;;;17.60;62.60;;;;;;5012245;28;20030;-79
2023/04/30 11:51:58;;;;;;;3.13;1.63;;;17.50;61.40;;;;;;5018466;28;20026;-79
2023/04/30 11:54:24;;;;;;;1.38;1.27;;;17.20;62.70;;;;;;5004921;28;20053;-78
2023/04/30 11:56:49;;;;;;;1.40;1.30;;;17.20;63.20;;;;;;4995993;28;20502;-79
2023/04/30 11:59:18;;;;;;;1.27;1.17;;;17.30;63.30;;;;;;5032850;28;20021;-78
2023/04/30 12:01:44;;;;;;;1.63;1.52;;;17.50;62.80;;;;;;5029213;28;20033;-79
2023/04/30 12:04:10;;;;;;;1.85;1.40;;;17.70;62.60;;;;;;5029365;28;20029;-78
2023/04/30 12:06:36;;;;;;;1.75;1.65;;;17.90;61.30;;;;;;5021496;28;20036;-81
2023/04/30 12:09:08;;;;;;;2.08;1.55;;;17.90;60.70;;;;;;5025454;28;20166;-82
2023/04/30 12:11:34;;;;;;;2.13;1.92;;;18.00;61.10;;;;;;5030590;28;20036;-82
2023/04/30 12:14:09;;;;;;;1.40;1.27;;;18.00;60.90;;;;;;5028757;28;20010;-82
2023/04/30 12:16:44;;;;;;;2.30;2.10;;;18.00;61.60;;;;;;5028200;28;20030;-82
2023/04/30 12:19:11;;;;;;;2.40;2.20;;;18.10;61.80;;;;;;5024958;28;20522;-82
2023/04/30 12:21:38;;;;;;;2.42;2.22;;;18.10;61.30;;;;;;5023722;28;20041;-81
2023/04/30 12:24:04;;;;;;;2.13;1.75;;;17.90;62.80;;;;;;5024192;28;20390;-82
2023/04/30 12:26:41;;;;;;;2.03;1.65;;;17.80;63.00;;;;;;5027988;28;20406;-82
2023/04/30 12:29:14;;;;;;;1.40;1.40;;;17.60;62.80;;;;;;5024432;28;20030;-81
2023/04/30 12:31:40;;;;;;;1.52;1.42;;;17.60;62.30;;;;;;5019612;28;20022;-80
2023/04/30 12:34:07;;;;;;;2.17;1.92;;;17.60;62.50;;;;;;5018651;28;20057;-81
2023/04/30 12:36:35;;;;;;;1.38;1.27;;;17.80;61.70;;;;;;5019944;28;20022;-82
2023/04/30 12:39:21;;;;;;;1.35;1.15;;;17.90;62.10;;;;;;5023230;28;20018;-81
2023/04/30 12:41:48;;;;;;;1.38;1.27;;;18.20;61.20;;;;;;5022699;28;20105;-82
2023/04/30 12:44:17;;;;;;;2.10;1.40;;;18.30;60.10;;;;;;5022607;28;20088;-82
2023/04/30 12:46:45;;;;;;;2.55;1.75;;;18.10;60.00;;;;;;5022368;28;20029;-82
2023/04/30 12:49:11;;;;;;;1.30;1.20;;;18.00;59.90;;;;;;5024592;28;20048;-81
2023/04/30 12:51:40;;;;;;;1.13;1.13;;;18.10;60.10;;;;;;5023269;28;20029;-82
2023/04/30 12:54:06;;;;;;;2.08;1.88;;;18.30;59.70;;;;;;5021025;28;20069;-82